createdAt,value
2019-04-10T00:01:20.614Z,93927.84
2019-04-10T00:03:51.418Z,93921.48
2019-04-10T00:06:22.068Z,93923.61
2019-04-10T00:08:52.821Z,93924.93
2019-04-10T00:11:23.339Z,93927.06
2019-04-10T00:13:53.758Z,93927.34
2019-04-10T00:16:24.481Z,93923.63
2019-04-10T00:18:56.128Z,93926.53
2019-04-10T00:21:26.364Z,93924.95
2019-04-10T00:23:57.672Z,93928.66
2019-04-10T00:26:28.482Z,93929.19
2019-04-10T00:29:00.143Z,93933.69
2019-04-10T00:31:31.782Z,93927.05
2019-04-10T00:34:02.623Z,93937.13
2019-04-10T00:36:33.188Z,93934.22
2019-04-10T00:39:06.478Z,93930.50
2019-04-10T00:41:38.547Z,93930.78
2019-04-10T00:44:08.992Z,93934.47
2019-04-10T00:46:40.082Z,93931.55
2019-04-10T00:49:10.694Z,93934.73
2019-04-10T00:51:41.737Z,93931.55
2019-04-10T00:54:12.391Z,93928.38
2019-04-10T00:56:43.364Z,93930.48
2019-04-10T00:59:13.804Z,93933.67
2019-04-10T01:01:44.408Z,93932.64
2019-04-10T01:04:15.139Z,93927.58
2019-04-10T01:06:46.310Z,93921.74
2019-04-10T01:09:17.386Z,93919.37
2019-04-10T01:11:48.020Z,93922.03
2019-04-10T01:14:18.671Z,93921.75
2019-04-10T01:16:49.553Z,93921.75
2019-04-10T01:19:20.261Z,93916.45
2019-04-10T01:21:50.752Z,93922.28
2019-04-10T01:24:21.655Z,93917.52
2019-04-10T01:26:52.365Z,93916.71
2019-04-10T01:29:23.747Z,93915.65
2019-04-10T01:31:55.267Z,93917.23
2019-04-10T01:34:25.745Z,93916.19
2019-04-10T01:36:56.486Z,93922.01
2019-04-10T01:39:30.582Z,93914.86
2019-04-10T01:42:01.203Z,93912.48
2019-04-10T01:44:32.944Z,93916.20
2019-04-10T01:47:04.591Z,93915.13
2019-04-10T01:49:35.274Z,93911.67
2019-04-10T01:52:06.835Z,93911.41
2019-04-10T01:54:37.571Z,93911.95
2019-04-10T01:57:08.240Z,93913.81
2019-04-10T01:59:40.305Z,93918.83
2019-04-10T02:02:21.811Z,93920.18
2019-04-10T02:04:53.838Z,93918.58
2019-04-10T02:07:24.671Z,93922.56
2019-04-10T02:09:56.164Z,93914.59
2019-04-10T02:12:26.673Z,93913.27
2019-04-10T02:14:56.950Z,93903.73
2019-04-10T02:17:28.510Z,93893.14
2019-04-10T02:19:58.925Z,93891.53
2019-04-10T02:22:30.771Z,93887.56
2019-04-10T02:25:01.624Z,93892.34
2019-04-10T02:27:32.214Z,93883.06
2019-04-10T02:30:02.521Z,93886.52
2019-04-10T02:32:34.568Z,93888.91
2019-04-10T02:35:06.890Z,93888.63
2019-04-10T02:37:39.435Z,93885.19
2019-04-10T02:40:10.863Z,93887.83
2019-04-10T02:42:43.191Z,93882.00
2019-04-10T02:45:14.864Z,93881.72
2019-04-10T02:47:47.268Z,93878.27
2019-04-10T02:50:18.781Z,93883.59
2019-04-10T02:52:50.854Z,93891.54
2019-04-10T02:55:23.010Z,93895.23
2019-04-10T02:57:54.206Z,93895.79
2019-04-10T03:00:26.652Z,93896.05
2019-04-10T03:02:59.171Z,93895.52
2019-04-10T03:05:30.310Z,93902.93
2019-04-10T03:08:01.114Z,93895.27
2019-04-10T03:10:40.491Z,93901.34
2019-04-10T03:13:04.723Z,93896.56
2019-04-10T03:15:35.950Z,93893.92
2019-04-10T03:18:06.643Z,93893.66
2019-04-10T03:20:37.061Z,93891.80
2019-04-10T03:23:07.396Z,93897.36
2019-04-10T03:25:39.195Z,93898.16
2019-04-10T03:28:11.080Z,93897.89
2019-04-10T03:30:41.922Z,93899.48
2019-04-10T03:33:47.222Z,93894.45
2019-04-10T03:36:15.799Z,93895.77
2019-04-10T03:38:55.253Z,93887.30
2019-04-10T03:41:18.582Z,93886.52
2019-04-10T03:43:50.061Z,93886.23
2019-04-10T03:46:21.487Z,93880.69
2019-04-10T03:48:51.974Z,93889.42
2019-04-10T03:51:22.887Z,93901.07
2019-04-10T03:53:54.241Z,93898.40
2019-04-10T03:56:25.551Z,93898.63
2019-04-10T03:58:56.313Z,93903.45
2019-04-10T04:01:26.993Z,93912.71
2019-04-10T04:03:57.761Z,93915.88
2019-04-10T04:06:28.444Z,93922.77
2019-04-10T04:09:06.939Z,93932.31
2019-04-10T04:11:31.809Z,93927.29
2019-04-10T04:14:02.322Z,93933.37
2019-04-10T04:16:33.280Z,93933.39
2019-04-10T04:19:04.458Z,93930.73
2019-04-10T04:21:36.026Z,93931.27
2019-04-10T04:24:07.176Z,93932.30
2019-04-10T04:26:37.993Z,93942.91
2019-04-10T04:29:09.449Z,93945.03
2019-04-10T04:31:41.994Z,93945.02
2019-04-10T04:34:12.608Z,93947.37
2019-04-10T04:36:43.264Z,93950.81
2019-04-10T04:39:23.189Z,93957.95
2019-04-10T04:41:47.889Z,93956.34
2019-04-10T04:44:18.283Z,93963.22
2019-04-10T04:46:50.611Z,93965.63
2019-04-10T04:49:21.265Z,93962.14
2019-04-10T04:51:52.659Z,93959.25
2019-04-10T04:54:23.471Z,93967.72
2019-04-10T04:56:53.997Z,93967.72
2019-04-10T04:59:24.551Z,93968.51
2019-04-10T05:01:55.043Z,93976.70
2019-04-10T05:04:26.987Z,93984.12
2019-04-10T05:06:59.914Z,93988.86
2019-04-10T05:09:36.588Z,93997.86
2019-04-10T05:12:02.930Z,93989.41
2019-04-10T05:14:33.572Z,93989.69
2019-04-10T05:17:04.239Z,93988.09
2019-04-10T05:19:36.100Z,93990.50
2019-04-10T05:22:06.482Z,93987.08
2019-04-10T05:24:37.007Z,93983.41
2019-04-10T05:27:07.811Z,93990.53
2019-04-10T05:29:38.741Z,93994.23
2019-04-10T05:32:09.335Z,93997.42
2019-04-10T05:34:40.417Z,94000.33
2019-04-10T05:37:11.456Z,94002.45
2019-04-10T05:39:47.619Z,94002.47
2019-04-10T05:42:14.808Z,94002.24
2019-04-10T05:44:45.397Z,94011.25
2019-04-10T05:47:17.067Z,94008.38
2019-04-10T05:49:47.533Z,94003.61
2019-04-10T05:52:18.306Z,94010.27
2019-04-10T05:54:49.362Z,94013.48
2019-04-10T05:57:20.515Z,94009.77
2019-04-10T05:59:50.988Z,94008.19
2019-04-10T06:02:21.544Z,94012.74
2019-04-10T06:04:52.234Z,94015.91
2019-04-10T06:07:23.166Z,94009.02
2019-04-10T06:09:59.590Z,94009.27
2019-04-10T06:12:26.491Z,94005.30
2019-04-10T06:14:56.887Z,94005.58
2019-04-10T06:17:27.311Z,94007.95
2019-04-10T06:19:58.678Z,94003.41
2019-04-10T06:22:30.407Z,94006.09
2019-04-10T06:25:00.845Z,94007.16
2019-04-10T06:27:32.414Z,94007.42
2019-04-10T06:30:03.661Z,94004.77
2019-04-10T06:32:34.721Z,94006.62
2019-04-10T06:35:05.783Z,94008.20
2019-04-10T06:37:36.196Z,94004.48
2019-04-10T06:40:15.103Z,94009.81
2019-04-10T06:42:46.169Z,94010.06
2019-04-10T06:45:11.470Z,94003.67
2019-04-10T06:47:42.486Z,94005.54
2019-04-10T06:50:13.181Z,94012.95
2019-04-10T06:52:45.068Z,94014.22
2019-04-10T06:55:15.799Z,94018.70
2019-04-10T06:57:52.054Z,94011.23
2019-04-10T07:00:19.736Z,94023.41
2019-04-10T07:02:51.291Z,94019.15
2019-04-10T07:05:24.179Z,94025.89
2019-04-10T07:08:02.801Z,94024.48
2019-04-10T07:10:33.594Z,94031.33
2019-04-10T07:12:59.654Z,94031.84
2019-04-10T07:15:29.989Z,94034.77
2019-04-10T07:18:00.987Z,94025.53
2019-04-10T07:20:31.657Z,94031.05
2019-04-10T07:23:03.054Z,94029.25
2019-04-10T07:25:34.153Z,94033.50
2019-04-10T07:28:07.397Z,94026.86
2019-04-10T07:30:38.002Z,94028.92
2019-04-10T07:33:09.695Z,94027.27
2019-04-10T07:35:40.681Z,94032.31
2019-04-10T07:38:11.821Z,94035.22
2019-04-10T07:40:42.911Z,94031.23
2019-04-10T07:43:13.560Z,94033.52
2019-04-10T07:45:44.224Z,94040.04
2019-04-10T07:48:15.018Z,94041.88
2019-04-10T07:50:46.746Z,94042.41
2019-04-10T07:53:17.616Z,94038.45
2019-04-10T07:55:58.455Z,94040.04
2019-04-10T07:58:21.435Z,94031.23
2019-04-10T08:00:53.134Z,94031.17
2019-04-10T08:03:25.153Z,94033.73
2019-04-10T08:05:56.095Z,94037.64
2019-04-10T08:08:27.730Z,94029.09
2019-04-10T08:10:59.391Z,94033.48
2019-04-10T08:13:30.869Z,94038.81
2019-04-10T08:16:01.438Z,94042.05
2019-04-10T08:18:32.095Z,94043.66
2019-04-10T08:21:02.936Z,94042.81
2019-04-10T08:23:35.639Z,94047.75
2019-04-10T08:26:08.097Z,94048.56
2019-04-10T08:28:38.801Z,94051.64
2019-04-10T08:31:09.029Z,94047.63
2019-04-10T08:33:39.480Z,94045.17
2019-04-10T08:36:10.905Z,94053.23
2019-04-10T08:38:42.182Z,94049.06
2019-04-10T08:41:13.138Z,94054.55
2019-04-10T08:43:43.897Z,94050.38
2019-04-10T08:46:14.337Z,94047.96
2019-04-10T08:48:44.842Z,94049.07
2019-04-10T08:51:16.825Z,94043.46
2019-04-10T08:53:48.756Z,94042.21
2019-04-10T08:56:20.422Z,94051.16
2019-04-10T08:58:51.683Z,94048.11
2019-04-10T09:01:23.012Z,94048.86
2019-04-10T09:03:55.258Z,94053.94
2019-04-10T09:06:25.703Z,94049.91
2019-04-10T09:08:57.183Z,94050.38
2019-04-10T09:11:29.789Z,94046.10
2019-04-10T09:13:59.701Z,94046.98
2019-04-10T09:16:31.006Z,94051.20
2019-04-10T09:19:02.030Z,94049.80
2019-04-10T09:21:32.821Z,94050.69
2019-04-10T09:24:04.640Z,94048.14
2019-04-10T09:26:36.241Z,94053.86
2019-04-10T09:29:07.365Z,94052.95
2019-04-10T09:31:37.921Z,94049.67
2019-04-10T09:34:09.681Z,94051.92
2019-04-10T09:36:41.644Z,94046.34
2019-04-10T09:39:12.355Z,94047.75
2019-04-10T09:41:43.917Z,94046.66
2019-04-10T09:44:14.748Z,94036.58
2019-04-10T09:46:45.529Z,94035.23
2019-04-10T09:49:16.586Z,94032.85
2019-04-10T09:51:48.183Z,94025.20
2019-04-10T09:54:18.947Z,94027.75
2019-04-10T09:56:50.538Z,94024.86
2019-04-10T09:59:31.153Z,94023.38
2019-04-10T10:01:54.892Z,94026.73
2019-04-10T10:04:25.802Z,94026.09
2019-04-10T10:06:56.259Z,94020.82
2019-04-10T10:09:29.089Z,94023.19
2019-04-10T10:11:59.319Z,94025.13
2019-04-10T10:14:31.907Z,94025.31
2019-04-10T10:17:02.274Z,94022.12
2019-04-10T10:19:34.147Z,94017.80
2019-04-10T10:22:06.153Z,94014.08
2019-04-10T10:24:38.524Z,94022.67
2019-04-10T10:27:09.489Z,94023.71
2019-04-10T10:29:39.972Z,94016.02
2019-04-10T10:32:11.051Z,94017.52
2019-04-10T10:34:42.735Z,94010.44
2019-04-10T10:37:13.208Z,94008.20
2019-04-10T10:39:43.707Z,94006.98
2019-04-10T10:42:14.348Z,94011.96
2019-04-10T10:44:45.952Z,94003.03
2019-04-10T10:47:17.570Z,93998.20
2019-04-10T10:49:48.762Z,93991.80
2019-04-10T10:52:19.496Z,93991.09
2019-04-10T10:54:50.110Z,93995.45
2019-04-10T10:57:20.647Z,93996.48
2019-04-10T10:59:51.511Z,93994.91
2019-04-10T11:02:22.289Z,93991.70
2019-04-10T11:04:53.681Z,93991.56
2019-04-10T11:07:24.566Z,93994.94
2019-04-10T11:09:55.175Z,93999.44
2019-04-10T11:12:26.362Z,93993.05
2019-04-10T11:14:57.375Z,94001.97
2019-04-10T11:17:28.187Z,93997.89
2019-04-10T11:19:59.506Z,93997.69
2019-04-10T11:22:31.550Z,94003.26
2019-04-10T11:25:03.743Z,93991.53
2019-04-10T11:27:37.315Z,93993.81
2019-04-10T11:30:08.385Z,93992.65
2019-04-10T11:32:39.422Z,93989.64
2019-04-10T11:35:11.178Z,93981.30
2019-04-10T11:37:45.449Z,93981.31
2019-04-10T11:40:16.247Z,93982.30
2019-04-10T11:42:47.109Z,93980.34
2019-04-10T11:45:19.182Z,93985.73
2019-04-10T11:47:51.239Z,93990.45
2019-04-10T11:50:24.706Z,93993.98
2019-04-10T11:52:56.108Z,93995.46
2019-04-10T11:55:27.802Z,94001.26
2019-04-10T11:57:59.938Z,93998.02
2019-04-10T12:00:45.327Z,94005.74
2019-04-10T12:03:12.753Z,93998.19
2019-04-10T12:05:46.196Z,94012.34
2019-04-10T12:08:41.938Z,94010.34
2019-04-10T12:13:20.468Z,94011.38
2019-04-10T12:15:50.974Z,94006.71
2019-04-10T12:18:22.453Z,94005.63
2019-04-10T12:20:53.569Z,94004.29
2019-04-10T12:23:25.124Z,94004.44
2019-04-10T12:25:55.811Z,94006.11
2019-04-10T12:28:25.997Z,93999.47
2019-04-10T12:30:56.650Z,93998.13
2019-04-10T12:33:27.628Z,93993.20
2019-04-10T12:35:58.351Z,93990.00
2019-04-10T12:38:29.772Z,93989.72
2019-04-10T12:41:01.322Z,93990.94
2019-04-10T12:43:32.624Z,93983.98
2019-04-10T12:46:04.470Z,93981.45
2019-04-10T12:48:35.321Z,93981.02
2019-04-10T12:51:05.941Z,93977.28
2019-04-10T12:53:36.326Z,93979.22
2019-04-10T12:56:06.593Z,93979.84
2019-04-10T12:58:37.444Z,93974.14
2019-04-10T13:01:08.767Z,93971.70
2019-04-10T13:03:39.480Z,93973.31
2019-04-10T13:06:09.832Z,93978.88
2019-04-10T13:08:55.894Z,93975.23
2019-04-10T13:11:12.817Z,93971.50
2019-04-10T13:13:44.373Z,93967.87
2019-04-10T13:16:16.153Z,93975.33
2019-04-10T13:18:47.209Z,93968.97
2019-04-10T13:21:18.216Z,93968.41
2019-04-10T13:23:49.075Z,93965.83
2019-04-10T13:26:19.824Z,93965.06
2019-04-10T13:28:50.426Z,93964.27
2019-04-10T13:31:21.468Z,93976.28
2019-04-10T13:33:53.033Z,93965.02
2019-04-10T13:36:23.968Z,93979.33
2019-04-10T13:38:54.820Z,93979.02
2019-04-10T13:41:26.150Z,93974.95
2019-04-10T13:43:55.673Z,93974.20
2019-04-10T13:46:26.863Z,93974.59
2019-04-10T13:48:57.667Z,93973.16
2019-04-10T13:51:28.120Z,93972.16
2019-04-10T13:53:58.563Z,93976.59
2019-04-10T13:56:28.939Z,93967.05
2019-04-10T13:59:00.346Z,93974.97
2019-04-10T14:01:33.540Z,93976.81
2019-04-10T14:04:04.925Z,93981.45
2019-04-10T14:06:36.014Z,93978.77
2019-04-10T14:09:27.732Z,93982.06
2019-04-10T14:11:41.665Z,93972.84
2019-04-10T14:14:13.204Z,93979.86
2019-04-10T14:16:44.643Z,93982.96
2019-04-10T14:19:15.408Z,93980.61
2019-04-10T14:21:46.049Z,93983.49
2019-04-10T14:24:17.876Z,93985.09
2019-04-10T14:27:00.621Z,93981.53
2019-04-10T14:29:32.257Z,93985.84
2019-04-10T14:32:07.041Z,93982.88
2019-04-10T14:34:38.689Z,93988.48
2019-04-10T14:37:13.740Z,93984.67
2019-04-10T14:42:16.010Z,93984.22
2019-04-10T14:44:46.728Z,93982.66
2019-04-10T14:47:17.415Z,93976.52
2019-04-10T14:49:48.017Z,93980.68
2019-04-10T14:52:18.967Z,93982.20
2019-04-10T14:54:50.313Z,93977.28
2019-04-10T14:57:21.017Z,93975.62
2019-04-10T14:59:52.533Z,93982.94
2019-04-10T15:02:24.584Z,93974.56
2019-04-10T15:04:55.507Z,93981.27
2019-04-10T15:07:26.816Z,93974.56
2019-04-10T15:09:57.671Z,93973.67
2019-04-10T15:12:28.179Z,93964.55
2019-04-10T15:14:59.551Z,93967.48
2019-04-10T15:17:30.773Z,93971.48
2019-04-10T15:20:01.339Z,93969.31
2019-04-10T15:22:32.002Z,93969.60
2019-04-10T15:25:05.066Z,93967.52
2019-04-10T15:27:35.494Z,93970.28
2019-04-10T15:30:06.559Z,93975.95
2019-04-10T15:32:37.800Z,93974.53
2019-04-10T15:35:08.559Z,93974.45
2019-04-10T15:37:39.992Z,93980.30
2019-04-10T15:40:18.569Z,93985.76
2019-04-10T15:42:43.963Z,93987.37
2019-04-10T15:45:14.929Z,93986.08
2019-04-10T15:47:52.636Z,93982.64
2019-04-10T15:50:18.078Z,93985.00
2019-04-10T15:52:48.652Z,93986.16
2019-04-10T15:55:19.517Z,93986.97
2019-04-10T15:57:53.866Z,94001.45
2019-04-10T16:00:23.189Z,93989.64
2019-04-10T16:02:55.081Z,93990.11
2019-04-10T16:05:26.053Z,93997.00
2019-04-10T16:07:56.575Z,93997.53
2019-04-10T16:10:46.187Z,93999.95
2019-04-10T16:13:36.658Z,93998.64
2019-04-10T16:16:25.533Z,94000.27
2019-04-10T16:19:04.828Z,94001.77
2019-04-10T16:21:36.535Z,93999.09
2019-04-10T16:24:09.553Z,94004.56
2019-04-10T16:26:41.124Z,94005.71
2019-04-10T16:29:12.803Z,94007.33
2019-04-10T16:31:44.007Z,94006.77
2019-04-10T16:34:15.692Z,94001.30
2019-04-10T16:36:46.185Z,94016.22
2019-04-10T16:39:17.736Z,94016.07
2019-04-10T16:41:50.247Z,94019.99
2019-04-10T16:44:21.820Z,94018.09
2019-04-10T16:46:53.159Z,94016.84
2019-04-10T16:49:24.595Z,94019.66
2019-04-10T16:51:56.608Z,94017.48
2019-04-10T16:54:27.238Z,94025.44
2019-04-10T16:56:58.295Z,94021.98
2019-04-10T16:59:29.945Z,94025.41
2019-04-10T17:02:01.872Z,94020.86
2019-04-10T17:04:32.436Z,94024.08
2019-04-10T17:07:03.194Z,94028.59
2019-04-10T17:09:34.494Z,94034.78
2019-04-10T17:12:06.558Z,94035.40
2019-04-10T17:14:37.850Z,94044.45
2019-04-10T17:17:08.626Z,94047.55
2019-04-10T17:19:48.768Z,94051.20
2019-04-10T17:22:11.747Z,94055.27
2019-04-10T17:24:42.200Z,94051.10
2019-04-10T17:27:13.213Z,94061.49
2019-04-10T17:29:45.143Z,94059.02
2019-04-10T17:32:15.694Z,94058.06
2019-04-10T17:34:47.197Z,94064.14
2019-04-10T17:37:18.481Z,94067.89
2019-04-10T17:39:49.476Z,94072.27
2019-04-10T17:42:21.897Z,94073.13
2019-04-10T17:44:52.451Z,94075.48
2019-04-10T17:47:22.907Z,94080.05
2019-04-10T17:49:53.978Z,94076.91
2019-04-10T17:52:27.009Z,94084.05
2019-04-10T17:54:58.854Z,94089.20
2019-04-10T17:57:38.376Z,94087.57
2019-04-10T18:00:02.996Z,94092.67
2019-04-10T18:02:35.447Z,94093.77
2019-04-10T18:05:06.524Z,94095.87
2019-04-10T18:07:38.426Z,94091.61
2019-04-10T18:10:09.196Z,94095.87
2019-04-10T18:12:40.591Z,94101.22
2019-04-10T18:15:11.551Z,94099.39
2019-04-10T18:17:43.005Z,94107.59
2019-04-10T18:20:13.943Z,94108.42
2019-04-10T18:22:45.061Z,94115.34
2019-04-10T18:25:15.901Z,94128.38
2019-04-10T18:27:46.891Z,94128.94
2019-04-10T18:30:17.487Z,94126.55
2019-04-10T18:32:48.014Z,94133.72
2019-04-10T18:35:18.792Z,94138.52
2019-04-10T18:37:49.939Z,94143.83
2019-04-10T18:40:21.183Z,94149.39
2019-04-10T18:42:51.830Z,94156.05
2019-04-10T18:45:23.790Z,94160.81
2019-04-10T18:47:54.677Z,94162.15
2019-04-10T18:50:26.492Z,94160.28
2019-04-10T18:52:57.247Z,94157.36
2019-04-10T18:55:28.117Z,94157.89
2019-04-10T18:57:59.121Z,94156.02
2019-04-10T19:00:48.557Z,94154.41
2019-04-10T19:03:31.593Z,94163.42
2019-04-10T19:06:04.672Z,94162.84
2019-04-10T19:08:35.589Z,94168.34
2019-04-10T19:11:17.569Z,94168.56
2019-04-10T19:13:40.341Z,94170.43
2019-04-10T19:16:12.967Z,94172.50
2019-04-10T19:18:44.051Z,94170.86
2019-04-10T19:21:15.595Z,94167.43
2019-04-10T19:23:46.268Z,94172.41
2019-04-10T19:26:21.108Z,94169.47
2019-04-10T19:28:52.792Z,94164.98
2019-04-10T19:31:24.663Z,94162.84
2019-04-10T19:33:55.279Z,94161.77
2019-04-10T19:36:26.396Z,94172.12
2019-04-10T19:38:57.879Z,94169.17
2019-04-10T19:41:34.687Z,94167.05
2019-04-10T19:44:02.311Z,94167.84
2019-04-10T19:46:33.416Z,94174.73
2019-04-10T19:49:04.383Z,94176.30
2019-04-10T19:51:36.320Z,94169.42
2019-04-10T19:54:09.642Z,94156.34
2019-04-10T19:56:40.536Z,94167.84
2019-04-10T19:59:11.103Z,94163.19
2019-04-10T20:01:42.373Z,94161.92
2019-04-10T20:04:13.102Z,94155.80
2019-04-10T20:06:44.737Z,94160.91
2019-04-10T20:09:16.978Z,94157.50
2019-04-10T20:11:52.527Z,94151.95
2019-04-10T20:14:20.105Z,94149.04
2019-04-10T20:16:51.266Z,94147.97
2019-04-10T20:19:22.400Z,94140.81
2019-04-10T20:21:52.930Z,94149.81
2019-04-10T20:24:23.457Z,94145.07
2019-04-10T20:26:54.110Z,94140.56
2019-04-10T20:29:24.644Z,94142.95
2019-04-10T20:31:57.423Z,94136.08
2019-04-10T20:34:29.300Z,94129.48
2019-04-10T20:37:06.599Z,94129.70
2019-04-10T20:39:33.647Z,94137.41
2019-04-10T20:42:05.623Z,94140.84
2019-04-10T20:44:36.593Z,94146.16
2019-04-10T20:47:08.746Z,94135.55
2019-04-10T20:49:40.469Z,94138.22
2019-04-10T20:52:11.943Z,94129.49
2019-04-10T20:54:43.315Z,94131.89
2019-04-10T20:57:15.066Z,94127.12
2019-04-10T20:59:45.794Z,94126.31
2019-04-10T21:02:16.692Z,94119.95
2019-04-10T21:04:56.392Z,94114.63
2019-04-10T21:07:19.694Z,94112.21
2019-04-10T21:09:50.330Z,94118.84
2019-04-10T21:12:21.437Z,94118.28
2019-04-10T21:14:52.563Z,94113.73
2019-04-10T21:17:23.310Z,94121.38
2019-04-10T21:19:55.858Z,94123.48
2019-04-10T21:22:26.549Z,94124.75
2019-04-10T21:24:57.039Z,94121.30
2019-04-10T21:27:27.950Z,94122.09
2019-04-10T21:30:05.194Z,94121.83
2019-04-10T21:32:58.310Z,94122.11
2019-04-10T21:35:32.886Z,94117.05
2019-04-10T21:38:04.684Z,94120.00
2019-04-10T21:40:35.288Z,94117.89
2019-04-10T21:43:07.011Z,94114.48
2019-04-10T21:45:37.499Z,94112.88
2019-04-10T21:48:08.531Z,94118.47
2019-04-10T21:50:39.804Z,94118.17
2019-04-10T21:53:10.691Z,94110.73
2019-04-10T21:55:41.721Z,94108.28
2019-04-10T21:58:14.412Z,94102.69
2019-04-10T22:01:07.595Z,94102.98
2019-04-10T22:03:39.387Z,94108.78
2019-04-10T22:06:41.079Z,94103.47
2019-04-10T22:09:35.036Z,94106.12
2019-04-10T22:12:23.698Z,94107.19
2019-04-10T22:14:45.720Z,94107.67
2019-04-10T22:17:17.087Z,94106.26
2019-04-10T22:19:47.441Z,94110.20
2019-04-10T22:22:18.152Z,94107.81
2019-04-10T22:24:48.654Z,94111.51
2019-04-10T22:27:19.441Z,94110.70
2019-04-10T22:29:50.044Z,94111.70
2019-04-10T22:32:20.706Z,94116.95
2019-04-10T22:34:52.699Z,94109.76
2019-04-10T22:37:23.666Z,94116.37
2019-04-10T22:39:54.550Z,94117.14
2019-04-10T22:42:37.964Z,94121.94
2019-04-10T22:44:58.234Z,94111.95
2019-04-10T22:47:29.681Z,94119.02
2019-04-10T22:50:01.473Z,94112.78
2019-04-10T22:52:32.431Z,94105.19
2019-04-10T22:55:03.641Z,94119.48
2019-04-10T22:57:34.831Z,94116.59
2019-04-10T23:00:05.725Z,94116.32
2019-04-10T23:02:37.872Z,94113.08
2019-04-10T23:05:08.436Z,94117.55
2019-04-10T23:07:39.273Z,94115.70
2019-04-10T23:10:12.875Z,94108.83
2019-04-10T23:12:52.206Z,94120.72
2019-04-10T23:15:16.096Z,94118.33
2019-04-10T23:17:46.842Z,94120.91
2019-04-10T23:20:18.257Z,94116.12
2019-04-10T23:22:49.005Z,94120.31
2019-04-10T23:25:20.497Z,94114.74
2019-04-10T23:27:54.607Z,94108.10
2019-04-10T23:30:24.634Z,94110.25
2019-04-10T23:32:55.695Z,94115.82
2019-04-10T23:35:27.544Z,94110.30
2019-04-10T23:37:59.388Z,94109.34
2019-04-10T23:40:30.143Z,94109.08
2019-04-10T23:43:09.627Z,94113.68
2019-04-10T23:45:33.532Z,94109.43
2019-04-10T23:48:04.580Z,94105.55
2019-04-10T23:50:36.428Z,94108.20
2019-04-10T23:53:07.122Z,94103.67
2019-04-10T23:55:37.975Z,94108.77
2019-04-10T23:58:09.403Z,94107.98
